sensor_id;sensor_type;location;lat;lon;timestamp;temperature;humidity
59572;DHT22;74587;45.880;11.484;2024-02-23T00:01:06;6.00;90.10
59572;DHT22;74587;45.880;11.484;2024-02-23T00:03:33;5.70;90.20
59572;DHT22;74587;45.880;11.484;2024-02-23T00:06:01;5.70;91.00
59572;DHT22;74587;45.880;11.484;2024-02-23T00:08:27;5.90;90.50
59572;DHT22;74587;45.880;11.484;2024-02-23T00:10:52;6.00;90.10
59572;DHT22;74587;45.880;11.484;2024-02-23T00:13:18;6.00;89.80
59572;DHT22;74587;45.880;11.484;2024-02-23T00:15:44;6.30;89.40
59572;DHT22;74587;45.880;11.484;2024-02-23T00:18:09;6.00;88.90
59572;DHT22;74587;45.880;11.484;2024-02-23T00:20:37;6.20;89.50
59572;DHT22;74587;45.880;11.484;2024-02-23T00:23:03;6.10;88.50
59572;DHT22;74587;45.880;11.484;2024-02-23T00:25:28;6.00;88.60
59572;DHT22;74587;45.880;11.484;2024-02-23T00:27:54;5.80;89.20
59572;DHT22;74587;45.880;11.484;2024-02-23T00:30:20;5.70;89.80
59572;DHT22;74587;45.880;11.484;2024-02-23T00:32:45;5.80;91.00
59572;DHT22;74587;45.880;11.484;2024-02-23T00:35:11;5.70;92.10
59572;DHT22;74587;45.880;11.484;2024-02-23T00:37:37;5.90;92.50
59572;DHT22;74587;45.880;11.484;2024-02-23T00:40:06;5.60;92.20
59572;DHT22;74587;45.880;11.484;2024-02-23T00:42:32;5.90;92.40
59572;DHT22;74587;45.880;11.484;2024-02-23T00:44:57;5.80;91.70
59572;DHT22;74587;45.880;11.484;2024-02-23T00:47:23;6.00;91.60
59572;DHT22;74587;45.880;11.484;2024-02-23T00:49:49;5.90;90.70
59572;DHT22;74587;45.880;11.484;2024-02-23T00:52:15;6.10;90.30
59572;DHT22;74587;45.880;11.484;2024-02-23T00:54:41;6.00;90.50
59572;DHT22;74587;45.880;11.484;2024-02-23T00:57:07;6.20;90.10
59572;DHT22;74587;45.880;11.484;2024-02-23T00:59:33;5.90;90.00
59572;DHT22;74587;45.880;11.484;2024-02-23T01:01:59;5.90;90.10
59572;DHT22;74587;45.880;11.484;2024-02-23T01:04:25;5.90;90.30
59572;DHT22;74587;45.880;11.484;2024-02-23T01:06:51;6.00;90.20
59572;DHT22;74587;45.880;11.484;2024-02-23T01:09:17;6.10;89.70
59572;DHT22;74587;45.880;11.484;2024-02-23T01:11:46;6.00;89.40
59572;DHT22;74587;45.880;11.484;2024-02-23T01:14:12;6.10;89.80
59572;DHT22;74587;45.880;11.484;2024-02-23T01:16:38;6.10;89.70
59572;DHT22;74587;45.880;11.484;2024-02-23T01:19:03;6.30;88.80
59572;DHT22;74587;45.880;11.484;2024-02-23T01:21:29;6.20;89.50
59572;DHT22;74587;45.880;11.484;2024-02-23T01:23:55;6.10;89.50
59572;DHT22;74587;45.880;11.484;2024-02-23T01:26:23;6.20;89.50
59572;DHT22;74587;45.880;11.484;2024-02-23T01:28:48;6.10;89.70
59572;DHT22;74587;45.880;11.484;2024-02-23T01:31:14;6.30;90.00
59572;DHT22;74587;45.880;11.484;2024-02-23T01:33:40;6.40;89.70
59572;DHT22;74587;45.880;11.484;2024-02-23T01:36:06;6.30;89.10
59572;DHT22;74587;45.880;11.484;2024-02-23T01:38:32;6.30;89.00
59572;DHT22;74587;45.880;11.484;2024-02-23T01:41:01;6.40;89.20
59572;DHT22;74587;45.880;11.484;2024-02-23T01:43:27;6.30;89.60
59572;DHT22;74587;45.880;11.484;2024-02-23T01:45:53;6.40;89.50
59572;DHT22;74587;45.880;11.484;2024-02-23T01:48:19;6.50;89.10
59572;DHT22;74587;45.880;11.484;2024-02-23T01:50:46;6.50;89.20
59572;DHT22;74587;45.880;11.484;2024-02-23T01:53:12;6.40;88.80
59572;DHT22;74587;45.880;11.484;2024-02-23T01:55:41;6.40;88.90
59572;DHT22;74587;45.880;11.484;2024-02-23T01:58:07;6.50;89.00
59572;DHT22;74587;45.880;11.484;2024-02-23T02:00:35;6.40;88.60
59572;DHT22;74587;45.880;11.484;2024-02-23T02:03:00;6.60;89.30
59572;DHT22;74587;45.880;11.484;2024-02-23T02:05:26;6.50;89.40
59572;DHT22;74587;45.880;11.484;2024-02-23T02:07:53;6.60;89.50
59572;DHT22;74587;45.880;11.484;2024-02-23T02:10:24;6.60;89.60
59572;DHT22;74587;45.880;11.484;2024-02-23T02:12:50;6.70;89.30
59572;DHT22;74587;45.880;11.484;2024-02-23T02:15:16;6.80;89.20
59572;DHT22;74587;45.880;11.484;2024-02-23T02:17:41;6.60;88.80
59572;DHT22;74587;45.880;11.484;2024-02-23T02:20:11;6.70;89.10
59572;DHT22;74587;45.880;11.484;2024-02-23T02:22:37;6.80;89.20
59572;DHT22;74587;45.880;11.484;2024-02-23T02:25:03;6.50;89.90
59572;DHT22;74587;45.880;11.484;2024-02-23T02:27:29;6.30;90.50
59572;DHT22;74587;45.880;11.484;2024-02-23T02:29:55;6.30;91.30
59572;DHT22;74587;45.880;11.484;2024-02-23T02:32:22;6.30;91.80
59572;DHT22;74587;45.880;11.484;2024-02-23T02:34:48;6.30;92.10
59572;DHT22;74587;45.880;11.484;2024-02-23T02:37:14;6.30;92.50
59572;DHT22;74587;45.880;11.484;2024-02-23T02:39:39;6.50;92.60
59572;DHT22;74587;45.880;11.484;2024-02-23T02:42:05;6.40;92.50
59572;DHT22;74587;45.880;11.484;2024-02-23T02:44:31;6.10;92.50
59572;DHT22;74587;45.880;11.484;2024-02-23T02:46:57;6.00;93.50
59572;DHT22;74587;45.880;11.484;2024-02-23T02:49:23;6.00;94.60
59572;DHT22;74587;45.880;11.484;2024-02-23T02:51:49;5.70;95.40
59572;DHT22;74587;45.880;11.484;2024-02-23T02:54:15;5.80;96.30
59572;DHT22;74587;45.880;11.484;2024-02-23T02:56:47;5.70;96.50
59572;DHT22;74587;45.880;11.484;2024-02-23T02:59:13;5.80;96.70
59572;DHT22;74587;45.880;11.484;2024-02-23T03:01:39;5.80;96.10
59572;DHT22;74587;45.880;11.484;2024-02-23T03:04:05;5.80;96.00
59572;DHT22;74587;45.880;11.484;2024-02-23T03:06:31;5.90;96.10
59572;DHT22;74587;45.880;11.484;2024-02-23T03:08:56;6.10;95.70
59572;DHT22;74587;45.880;11.484;2024-02-23T03:11:22;6.00;95.20
59572;DHT22;74587;45.880;11.484;2024-02-23T03:13:48;5.70;96.50
59572;DHT22;74587;45.880;11.484;2024-02-23T03:16:20;5.90;96.30
59572;DHT22;74587;45.880;11.484;2024-02-23T03:18:46;6.00;96.20
59572;DHT22;74587;45.880;11.484;2024-02-23T03:21:12;5.90;96.30
59572;DHT22;74587;45.880;11.484;2024-02-23T03:23:39;6.00;95.90
59572;DHT22;74587;45.880;11.484;2024-02-23T03:26:07;6.10;95.90
59572;DHT22;74587;45.880;11.484;2024-02-23T03:28:33;6.10;95.80
59572;DHT22;74587;45.880;11.484;2024-02-23T03:31:00;6.10;95.40
59572;DHT22;74587;45.880;11.484;2024-02-23T03:33:26;6.10;95.30
59572;DHT22;74587;45.880;11.484;2024-02-23T03:35:52;6.10;94.60
59572;DHT22;74587;45.880;11.484;2024-02-23T03:38:17;6.20;94.80
59572;DHT22;74587;45.880;11.484;2024-02-23T03:40:43;5.90;95.80
59572;DHT22;74587;45.880;11.484;2024-02-23T03:43:09;5.90;96.20
59572;DHT22;74587;45.880;11.484;2024-02-23T03:45:35;5.90;96.60
59572;DHT22;74587;45.880;11.484;2024-02-23T03:48:02;6.30;96.30
59572;DHT22;74587;45.880;11.484;2024-02-23T03:50:29;6.30;95.20
59572;DHT22;74587;45.880;11.484;2024-02-23T03:52:55;6.30;94.70
59572;DHT22;74587;45.880;11.484;2024-02-23T03:55:21;6.30;94.40
59572;DHT22;74587;45.880;11.484;2024-02-23T03:57:47;6.30;94.50
59572;DHT22;74587;45.880;11.484;2024-02-23T04:00:13;6.40;94.40
59572;DHT22;74587;45.880;11.484;2024-02-23T04:02:39;6.40;95.30
59572;DHT22;74587;45.880;11.484;2024-02-23T04:05:06;6.20;96.20
59572;DHT22;74587;45.880;11.484;2024-02-23T04:07:32;6.10;96.50
59572;DHT22;74587;45.880;11.484;2024-02-23T04:09:58;6.20;96.90
59572;DHT22;74587;45.880;11.484;2024-02-23T04:12:24;6.00;97.80
59572;DHT22;74587;45.880;11.484;2024-02-23T04:14:50;5.90;98.90
59572;DHT22;74587;45.880;11.484;2024-02-23T04:17:15;6.00;99.60
59572;DHT22;74587;45.880;11.484;2024-02-23T04:19:42;6.10;99.50
59572;DHT22;74587;45.880;11.484;2024-02-23T04:22:08;6.00;99.90
59572;DHT22;74587;45.880;11.484;2024-02-23T04:24:39;6.00;99.90
59572;DHT22;74587;45.880;11.484;2024-02-23T04:27:07;5.90;99.90
59572;DHT22;74587;45.880;11.484;2024-02-23T04:29:33;5.90;99.90
59572;DHT22;74587;45.880;11.484;2024-02-23T04:32:02;5.90;99.90
59572;DHT22;74587;45.880;11.484;2024-02-23T04:34:28;5.40;99.90
59572;DHT22;74587;45.880;11.484;2024-02-23T04:36:54;5.90;99.90
59572;DHT22;74587;45.880;11.484;2024-02-23T04:39:21;5.70;99.90
59572;DHT22;74587;45.880;11.484;2024-02-23T04:41:47;6.10;99.90
59572;DHT22;74587;45.880;11.484;2024-02-23T04:44:13;6.10;99.90
59572;DHT22;74587;45.880;11.484;2024-02-23T04:46:38;6.30;99.90
59572;DHT22;74587;45.880;11.484;2024-02-23T04:49:04;6.40;99.90
59572;DHT22;74587;45.880;11.484;2024-02-23T04:51:30;6.20;99.30
59572;DHT22;74587;45.880;11.484;2024-02-23T04:53:55;6.20;99.30
59572;DHT22;74587;45.880;11.484;2024-02-23T04:56:21;6.50;98.50
59572;DHT22;74587;45.880;11.484;2024-02-23T04:58:47;6.50;97.80
59572;DHT22;74587;45.880;11.484;2024-02-23T05:01:13;6.30;96.40
59572;DHT22;74587;45.880;11.484;2024-02-23T05:03:39;6.60;95.50
59572;DHT22;74587;45.880;11.484;2024-02-23T05:06:05;6.40;95.70
59572;DHT22;74587;45.880;11.484;2024-02-23T05:08:31;6.30;95.90
59572;DHT22;74587;45.880;11.484;2024-02-23T05:10:59;6.40;95.70
59572;DHT22;74587;45.880;11.484;2024-02-23T05:13:25;6.30;96.10
59572;DHT22;74587;45.880;11.484;2024-02-23T05:15:51;6.20;97.20
59572;DHT22;74587;45.880;11.484;2024-02-23T05:18:17;6.30;97.40
59572;DHT22;74587;45.880;11.484;2024-02-23T05:20:42;6.30;97.80
59572;DHT22;74587;45.880;11.484;2024-02-23T05:23:08;5.80;99.90
59572;DHT22;74587;45.880;11.484;2024-02-23T05:25:34;5.80;99.90
59572;DHT22;74587;45.880;11.484;2024-02-23T05:28:00;6.20;99.90
59572;DHT22;74587;45.880;11.484;2024-02-23T05:30:25;6.20;99.90
59572;DHT22;74587;45.880;11.484;2024-02-23T05:32:52;6.10;99.90
59572;DHT22;74587;45.880;11.484;2024-02-23T05:35:18;6.20;99.90
59572;DHT22;74587;45.880;11.484;2024-02-23T05:37:44;6.30;99.90
59572;DHT22;74587;45.880;11.484;2024-02-23T05:40:10;6.30;99.90
59572;DHT22;74587;45.880;11.484;2024-02-23T05:42:36;6.30;99.90
59572;DHT22;74587;45.880;11.484;2024-02-23T05:45:03;6.30;99.90
59572;DHT22;74587;45.880;11.484;2024-02-23T05:47:30;6.50;99.90
59572;DHT22;74587;45.880;11.484;2024-02-23T05:49:56;6.60;99.60
59572;DHT22;74587;45.880;11.484;2024-02-23T05:52:22;6.60;98.70
59572;DHT22;74587;45.880;11.484;2024-02-23T05:54:48;6.50;98.90
59572;DHT22;74587;45.880;11.484;2024-02-23T05:57:13;6.50;99.20
59572;DHT22;74587;45.880;11.484;2024-02-23T05:59:39;6.30;99.90
59572;DHT22;74587;45.880;11.484;2024-02-23T06:02:05;6.30;99.90
59572;DHT22;74587;45.880;11.484;2024-02-23T06:04:31;6.40;99.90
59572;DHT22;74587;45.880;11.484;2024-02-23T06:06:57;6.40;99.90
59572;DHT22;74587;45.880;11.484;2024-02-23T06:09:23;6.10;99.90
59572;DHT22;74587;45.880;11.484;2024-02-23T06:11:48;6.00;99.90
59572;DHT22;74587;45.880;11.484;2024-02-23T06:14:14;6.10;99.90
59572;DHT22;74587;45.880;11.484;2024-02-23T06:16:40;5.90;99.90
59572;DHT22;74587;45.880;11.484;2024-02-23T06:19:06;6.10;99.90
59572;DHT22;74587;45.880;11.484;2024-02-23T06:21:32;5.90;99.90
59572;DHT22;74587;45.880;11.484;2024-02-23T06:23:58;5.90;99.90
59572;DHT22;74587;45.880;11.484;2024-02-23T06:26:24;6.00;99.90
59572;DHT22;74587;45.880;11.484;2024-02-23T06:28:49;6.20;99.90
59572;DHT22;74587;45.880;11.484;2024-02-23T06:31:15;6.10;99.90
59572;DHT22;74587;45.880;11.484;2024-02-23T06:33:41;6.20;99.90
59572;DHT22;74587;45.880;11.484;2024-02-23T06:36:07;6.20;99.90
59572;DHT22;74587;45.880;11.484;2024-02-23T06:38:34;6.10;99.90
59572;DHT22;74587;45.880;11.484;2024-02-23T06:40:59;6.10;99.90
59572;DHT22;74587;45.880;11.484;2024-02-23T06:43:25;5.90;99.90
59572;DHT22;74587;45.880;11.484;2024-02-23T06:45:52;6.10;99.90
59572;DHT22;74587;45.880;11.484;2024-02-23T06:48:18;6.20;99.90
59572;DHT22;74587;45.880;11.484;2024-02-23T06:50:44;6.20;99.90
59572;DHT22;74587;45.880;11.484;2024-02-23T06:53:09;6.00;99.90
59572;DHT22;74587;45.880;11.484;2024-02-23T06:55:35;6.00;99.90
59572;DHT22;74587;45.880;11.484;2024-02-23T06:58:01;5.90;99.90
59572;DHT22;74587;45.880;11.484;2024-02-23T07:00:27;6.20;99.90
59572;DHT22;74587;45.880;11.484;2024-02-23T07:02:53;6.00;99.90
59572;DHT22;74587;45.880;11.484;2024-02-23T07:05:19;6.00;99.90
59572;DHT22;74587;45.880;11.484;2024-02-23T07:07:45;5.90;99.90
59572;DHT22;74587;45.880;11.484;2024-02-23T07:10:11;5.60;99.90
59572;DHT22;74587;45.880;11.484;2024-02-23T07:12:37;5.50;99.90
59572;DHT22;74587;45.880;11.484;2024-02-23T07:15:03;5.60;99.90
59572;DHT22;74587;45.880;11.484;2024-02-23T07:17:29;5.50;99.90
59572;DHT22;74587;45.880;11.484;2024-02-23T07:19:55;5.70;99.90
59572;DHT22;74587;45.880;11.484;2024-02-23T07:22:28;5.70;99.90
59572;DHT22;74587;45.880;11.484;2024-02-23T07:24:54;5.60;99.90
59572;DHT22;74587;45.880;11.484;2024-02-23T07:27:19;5.60;99.90
59572;DHT22;74587;45.880;11.484;2024-02-23T07:29:45;5.60;99.90
59572;DHT22;74587;45.880;11.484;2024-02-23T07:32:11;5.80;99.90
59572;DHT22;74587;45.880;11.484;2024-02-23T07:34:36;5.70;99.90
59572;DHT22;74587;45.880;11.484;2024-02-23T07:37:02;5.60;99.90
59572;DHT22;74587;45.880;11.484;2024-02-23T07:39:29;5.80;99.90
59572;DHT22;74587;45.880;11.484;2024-02-23T07:41:55;5.70;99.90
59572;DHT22;74587;45.880;11.484;2024-02-23T07:44:20;5.90;99.90
59572;DHT22;74587;45.880;11.484;2024-02-23T07:46:46;5.50;99.90
59572;DHT22;74587;45.880;11.484;2024-02-23T07:49:12;5.70;99.90
59572;DHT22;74587;45.880;11.484;2024-02-23T07:51:37;5.50;99.90
59572;DHT22;74587;45.880;11.484;2024-02-23T07:54:03;5.60;99.90
59572;DHT22;74587;45.880;11.484;2024-02-23T07:56:29;5.60;99.90
59572;DHT22;74587;45.880;11.484;2024-02-23T07:58:55;5.60;99.90
59572;DHT22;74587;45.880;11.484;2024-02-23T08:01:22;5.90;99.90
59572;DHT22;74587;45.880;11.484;2024-02-23T08:03:47;5.30;99.90
59572;DHT22;74587;45.880;11.484;2024-02-23T08:06:13;5.20;99.90
59572;DHT22;74587;45.880;11.484;2024-02-23T08:08:39;5.30;99.90
59572;DHT22;74587;45.880;11.484;2024-02-23T08:11:05;5.60;99.90
59572;DHT22;74587;45.880;11.484;2024-02-23T08:13:31;5.40;99.90
59572;DHT22;74587;45.880;11.484;2024-02-23T08:15:57;5.30;99.90
59572;DHT22;74587;45.880;11.484;2024-02-23T08:18:23;5.60;99.90
59572;DHT22;74587;45.880;11.484;2024-02-23T08:20:49;5.50;99.90
59572;DHT22;74587;45.880;11.484;2024-02-23T08:23:15;5.70;99.90
59572;DHT22;74587;45.880;11.484;2024-02-23T08:25:41;5.50;99.90
59572;DHT22;74587;45.880;11.484;2024-02-23T08:28:07;5.40;99.90
59572;DHT22;74587;45.880;11.484;2024-02-23T08:30:33;5.40;99.90
59572;DHT22;74587;45.880;11.484;2024-02-23T08:32:59;5.30;99.90
59572;DHT22;74587;45.880;11.484;2024-02-23T08:35:25;5.10;99.90
59572;DHT22;74587;45.880;11.484;2024-02-23T08:37:51;5.40;99.90
59572;DHT22;74587;45.880;11.484;2024-02-23T08:40:17;5.50;99.90
59572;DHT22;74587;45.880;11.484;2024-02-23T08:42:43;5.50;99.90
59572;DHT22;74587;45.880;11.484;2024-02-23T08:45:09;5.60;99.90
59572;DHT22;74587;45.880;11.484;2024-02-23T08:47:39;5.40;99.90
59572;DHT22;74587;45.880;11.484;2024-02-23T08:50:06;5.60;99.90
59572;DHT22;74587;45.880;11.484;2024-02-23T08:52:32;5.80;99.90
59572;DHT22;74587;45.880;11.484;2024-02-23T08:54:57;5.50;99.90
59572;DHT22;74587;45.880;11.484;2024-02-23T08:57:23;5.30;99.90
59572;DHT22;74587;45.880;11.484;2024-02-23T08:59:49;5.60;99.90
59572;DHT22;74587;45.880;11.484;2024-02-23T09:02:15;5.70;99.90
59572;DHT22;74587;45.880;11.484;2024-02-23T09:04:41;5.70;99.90
59572;DHT22;74587;45.880;11.484;2024-02-23T09:07:07;6.00;99.90
59572;DHT22;74587;45.880;11.484;2024-02-23T09:09:33;5.90;99.90
59572;DHT22;74587;45.880;11.484;2024-02-23T09:11:59;5.90;99.90
59572;DHT22;74587;45.880;11.484;2024-02-23T09:14:25;5.90;99.90
59572;DHT22;74587;45.880;11.484;2024-02-23T09:16:52;5.80;99.90
59572;DHT22;74587;45.880;11.484;2024-02-23T09:19:22;5.80;99.90
59572;DHT22;74587;45.880;11.484;2024-02-23T09:21:48;5.70;99.90
59572;DHT22;74587;45.880;11.484;2024-02-23T09:24:14;6.10;99.90
59572;DHT22;74587;45.880;11.484;2024-02-23T09:26:40;6.20;99.90
59572;DHT22;74587;45.880;11.484;2024-02-23T09:29:06;6.10;99.90
59572;DHT22;74587;45.880;11.484;2024-02-23T09:31:32;6.50;99.90
59572;DHT22;74587;45.880;11.484;2024-02-23T09:33:58;6.40;99.90
59572;DHT22;74587;45.880;11.484;2024-02-23T09:36:24;6.40;99.90
59572;DHT22;74587;45.880;11.484;2024-02-23T09:38:50;6.40;99.90
59572;DHT22;74587;45.880;11.484;2024-02-23T09:41:21;6.50;99.90
59572;DHT22;74587;45.880;11.484;2024-02-23T09:43:47;6.60;99.90
59572;DHT22;74587;45.880;11.484;2024-02-23T09:46:17;6.50;99.90
59572;DHT22;74587;45.880;11.484;2024-02-23T09:48:43;6.50;99.60
59572;DHT22;74587;45.880;11.484;2024-02-23T09:51:12;6.60;99.90
59572;DHT22;74587;45.880;11.484;2024-02-23T09:53:39;6.50;98.60
59572;DHT22;74587;45.880;11.484;2024-02-23T09:56:05;6.50;98.50
59572;DHT22;74587;45.880;11.484;2024-02-23T09:58:32;6.50;99.40
59572;DHT22;74587;45.880;11.484;2024-02-23T10:00:59;6.50;99.90
59572;DHT22;74587;45.880;11.484;2024-02-23T10:03:27;6.40;99.90
59572;DHT22;74587;45.880;11.484;2024-02-23T10:05:54;6.50;99.90
59572;DHT22;74587;45.880;11.484;2024-02-23T10:08:20;6.60;99.90
59572;DHT22;74587;45.880;11.484;2024-02-23T10:10:46;6.70;98.60
59572;DHT22;74587;45.880;11.484;2024-02-23T10:13:23;6.70;98.90
59572;DHT22;74587;45.880;11.484;2024-02-23T10:15:52;6.70;98.00
59572;DHT22;74587;45.880;11.484;2024-02-23T10:18:18;6.70;98.00
59572;DHT22;74587;45.880;11.484;2024-02-23T10:20:44;6.70;97.70
59572;DHT22;74587;45.880;11.484;2024-02-23T10:23:10;6.60;98.80
59572;DHT22;74587;45.880;11.484;2024-02-23T10:25:37;6.70;99.70
59572;DHT22;74587;45.880;11.484;2024-02-23T10:28:05;6.50;99.90
59572;DHT22;74587;45.880;11.484;2024-02-23T10:30:31;6.50;99.90
59572;DHT22;74587;45.880;11.484;2024-02-23T10:32:59;6.60;99.90
59572;DHT22;74587;45.880;11.484;2024-02-23T10:35:25;6.20;99.90
59572;DHT22;74587;45.880;11.484;2024-02-23T10:37:53;6.40;99.90
59572;DHT22;74587;45.880;11.484;2024-02-23T10:40:21;6.40;99.90
59572;DHT22;74587;45.880;11.484;2024-02-23T10:42:50;6.40;99.90
59572;DHT22;74587;45.880;11.484;2024-02-23T10:45:21;6.50;99.90
59572;DHT22;74587;45.880;11.484;2024-02-23T10:47:50;6.60;99.90
59572;DHT22;74587;45.880;11.484;2024-02-23T10:50:17;6.60;99.90
59572;DHT22;74587;45.880;11.484;2024-02-23T10:52:45;6.70;99.90
59572;DHT22;74587;45.880;11.484;2024-02-23T10:55:14;6.90;99.90
59572;DHT22;74587;45.880;11.484;2024-02-23T10:57:39;6.70;99.90
59572;DHT22;74587;45.880;11.484;2024-02-23T11:00:07;7.00;99.90
59572;DHT22;74587;45.880;11.484;2024-02-23T11:02:55;6.90;99.90
59572;DHT22;74587;45.880;11.484;2024-02-23T11:05:23;7.00;99.90
59572;DHT22;74587;45.880;11.484;2024-02-23T11:07:49;6.80;99.90
59572;DHT22;74587;45.880;11.484;2024-02-23T11:10:16;6.70;99.90
59572;DHT22;74587;45.880;11.484;2024-02-23T11:12:42;6.80;99.90
59572;DHT22;74587;45.880;11.484;2024-02-23T11:15:08;6.70;99.90
59572;DHT22;74587;45.880;11.484;2024-02-23T11:17:35;6.60;99.90
59572;DHT22;74587;45.880;11.484;2024-02-23T11:20:05;6.70;99.90
59572;DHT22;74587;45.880;11.484;2024-02-23T11:22:35;6.50;99.90
59572;DHT22;74587;45.880;11.484;2024-02-23T11:25:06;6.70;99.90
59572;DHT22;74587;45.880;11.484;2024-02-23T11:27:34;6.80;99.90
59572;DHT22;74587;45.880;11.484;2024-02-23T11:30:06;6.90;99.90
59572;DHT22;74587;45.880;11.484;2024-02-23T11:35:11;7.20;98.10
59572;DHT22;74587;45.880;11.484;2024-02-23T11:37:52;7.00;97.40
59572;DHT22;74587;45.880;11.484;2024-02-23T11:40:30;7.10;98.80
59572;DHT22;74587;45.880;11.484;2024-02-23T11:42:56;6.90;98.10
59572;DHT22;74587;45.880;11.484;2024-02-23T11:45:23;7.10;98.00
59572;DHT22;74587;45.880;11.484;2024-02-23T11:47:49;7.00;97.80
59572;DHT22;74587;45.880;11.484;2024-02-23T11:50:14;7.00;97.90
59572;DHT22;74587;45.880;11.484;2024-02-23T11:52:46;6.90;97.90
59572;DHT22;74587;45.880;11.484;2024-02-23T11:55:13;6.80;99.60
59572;DHT22;74587;45.880;11.484;2024-02-23T11:57:44;7.00;98.50
59572;DHT22;74587;45.880;11.484;2024-02-23T12:00:11;7.00;99.50
59572;DHT22;74587;45.880;11.484;2024-02-23T12:02:36;7.00;98.80
59572;DHT22;74587;45.880;11.484;2024-02-23T12:05:02;7.00;98.60
59572;DHT22;74587;45.880;11.484;2024-02-23T12:07:29;7.00;98.30
59572;DHT22;74587;45.880;11.484;2024-02-23T12:09:59;7.00;97.30
59572;DHT22;74587;45.880;11.484;2024-02-23T12:12:25;7.00;97.00
59572;DHT22;74587;45.880;11.484;2024-02-23T12:14:52;7.10;97.60
59572;DHT22;74587;45.880;11.484;2024-02-23T12:17:17;7.10;97.60
59572;DHT22;74587;45.880;11.484;2024-02-23T12:19:43;7.20;97.90
59572;DHT22;74587;45.880;11.484;2024-02-23T12:22:10;7.30;97.90
59572;DHT22;74587;45.880;11.484;2024-02-23T12:24:37;7.40;96.80
59572;DHT22;74587;45.880;11.484;2024-02-23T12:27:03;7.50;95.50
59572;DHT22;74587;45.880;11.484;2024-02-23T12:29:30;7.80;95.70
59572;DHT22;74587;45.880;11.484;2024-02-23T12:32:03;7.80;95.80
59572;DHT22;74587;45.880;11.484;2024-02-23T12:34:29;7.80;94.10
59572;DHT22;74587;45.880;11.484;2024-02-23T12:36:55;7.90;93.30
59572;DHT22;74587;45.880;11.484;2024-02-23T12:39:21;7.80;93.50
59572;DHT22;74587;45.880;11.484;2024-02-23T12:41:47;7.70;93.80
59572;DHT22;74587;45.880;11.484;2024-02-23T12:44:12;7.70;94.40
59572;DHT22;74587;45.880;11.484;2024-02-23T12:46:38;7.80;95.20
59572;DHT22;74587;45.880;11.484;2024-02-23T12:49:04;7.80;95.40
59572;DHT22;74587;45.880;11.484;2024-02-23T12:51:30;8.00;95.50
59572;DHT22;74587;45.880;11.484;2024-02-23T12:53:55;8.00;95.40
59572;DHT22;74587;45.880;11.484;2024-02-23T12:56:21;7.80;95.00
59572;DHT22;74587;45.880;11.484;2024-02-23T12:58:47;8.00;94.90
59572;DHT22;74587;45.880;11.484;2024-02-23T13:01:13;7.90;94.90
59572;DHT22;74587;45.880;11.484;2024-02-23T13:03:39;8.00;94.30
59572;DHT22;74587;45.880;11.484;2024-02-23T13:06:08;7.80;93.60
59572;DHT22;74587;45.880;11.484;2024-02-23T13:08:34;7.70;93.70
59572;DHT22;74587;45.880;11.484;2024-02-23T13:11:00;7.60;94.10
59572;DHT22;74587;45.880;11.484;2024-02-23T13:13:26;7.50;94.80
59572;DHT22;74587;45.880;11.484;2024-02-23T13:15:53;7.70;95.50
59572;DHT22;74587;45.880;11.484;2024-02-23T13:18:19;7.50;96.00
59572;DHT22;74587;45.880;11.484;2024-02-23T13:20:45;7.50;95.80
59572;DHT22;74587;45.880;11.484;2024-02-23T13:23:12;7.40;94.70
59572;DHT22;74587;45.880;11.484;2024-02-23T13:25:39;7.30;95.80
59572;DHT22;74587;45.880;11.484;2024-02-23T13:28:06;7.40;96.30
59572;DHT22;74587;45.880;11.484;2024-02-23T13:30:32;7.40;97.70
59572;DHT22;74587;45.880;11.484;2024-02-23T13:32:58;7.30;98.10
59572;DHT22;74587;45.880;11.484;2024-02-23T13:35:23;7.10;98.80
59572;DHT22;74587;45.880;11.484;2024-02-23T13:37:50;7.30;99.90
59572;DHT22;74587;45.880;11.484;2024-02-23T13:40:16;7.20;99.90
59572;DHT22;74587;45.880;11.484;2024-02-23T13:42:42;7.30;99.90
59572;DHT22;74587;45.880;11.484;2024-02-23T13:45:09;7.60;99.60
59572;DHT22;74587;45.880;11.484;2024-02-23T13:47:35;7.60;98.70
59572;DHT22;74587;45.880;11.484;2024-02-23T13:50:02;7.50;96.70
59572;DHT22;74587;45.880;11.484;2024-02-23T13:52:27;7.50;95.30
59572;DHT22;74587;45.880;11.484;2024-02-23T13:54:54;7.30;93.60
59572;DHT22;74587;45.880;11.484;2024-02-23T13:57:19;7.10;93.30
59572;DHT22;74587;45.880;11.484;2024-02-23T13:59:45;7.20;92.80
59572;DHT22;74587;45.880;11.484;2024-02-23T14:02:11;7.20;92.30
59572;DHT22;74587;45.880;11.484;2024-02-23T14:04:37;7.10;93.20
59572;DHT22;74587;45.880;11.484;2024-02-23T14:07:03;7.20;92.70
59572;DHT22;74587;45.880;11.484;2024-02-23T14:09:30;7.20;92.80
59572;DHT22;74587;45.880;11.484;2024-02-23T14:11:56;7.10;92.00
59572;DHT22;74587;45.880;11.484;2024-02-23T14:14:22;7.00;92.40
59572;DHT22;74587;45.880;11.484;2024-02-23T14:16:49;6.80;91.80
59572;DHT22;74587;45.880;11.484;2024-02-23T14:22:35;6.80;92.70
59572;DHT22;74587;45.880;11.484;2024-02-23T14:29:26;6.20;94.30
59572;DHT22;74587;45.880;11.484;2024-02-23T14:32:00;6.30;96.60
59572;DHT22;74587;45.880;11.484;2024-02-23T14:34:32;6.30;96.10
59572;DHT22;74587;45.880;11.484;2024-02-23T14:39:40;6.30;96.30
59572;DHT22;74587;45.880;11.484;2024-02-23T14:42:06;6.40;95.20
59572;DHT22;74587;45.880;11.484;2024-02-23T14:51:57;6.10;94.60
59572;DHT22;74587;45.880;11.484;2024-02-23T14:54:26;5.80;94.50
59572;DHT22;74587;45.880;11.484;2024-02-23T14:56:55;5.70;94.70
59572;DHT22;74587;45.880;11.484;2024-02-23T14:59:20;5.80;95.10
59572;DHT22;74587;45.880;11.484;2024-02-23T15:01:46;5.80;95.20
59572;DHT22;74587;45.880;11.484;2024-02-23T15:04:12;6.00;95.40
59572;DHT22;74587;45.880;11.484;2024-02-23T15:06:39;5.90;94.80
59572;DHT22;74587;45.880;11.484;2024-02-23T15:09:05;5.90;95.00
59572;DHT22;74587;45.880;11.484;2024-02-23T15:11:32;5.90;95.60
59572;DHT22;74587;45.880;11.484;2024-02-23T15:13:58;5.90;96.30
59572;DHT22;74587;45.880;11.484;2024-02-23T15:16:24;5.90;97.10
59572;DHT22;74587;45.880;11.484;2024-02-23T15:18:50;6.10;98.10
59572;DHT22;74587;45.880;11.484;2024-02-23T15:21:17;6.20;98.20
59572;DHT22;74587;45.880;11.484;2024-02-23T15:23:43;6.20;98.30
59572;DHT22;74587;45.880;11.484;2024-02-23T15:26:10;6.40;98.40
59572;DHT22;74587;45.880;11.484;2024-02-23T15:28:39;6.50;97.70
59572;DHT22;74587;45.880;11.484;2024-02-23T15:31:05;6.50;96.80
59572;DHT22;74587;45.880;11.484;2024-02-23T15:36:20;5.90;94.60
59572;DHT22;74587;45.880;11.484;2024-02-23T15:38:45;6.10;98.00
59572;DHT22;74587;45.880;11.484;2024-02-23T15:41:12;6.20;99.00
59572;DHT22;74587;45.880;11.484;2024-02-23T15:43:37;6.20;98.50
59572;DHT22;74587;45.880;11.484;2024-02-23T15:46:03;6.10;97.30
59572;DHT22;74587;45.880;11.484;2024-02-23T15:48:29;5.90;96.30